Newton Hamilton, Pennsylvania
Current Conditions -  °F | °C
As of 12:53 PM on Saturday 25 Oct 2014 (Local Time) from KAOO Reporting Station
Few Clouds Few Clouds  
Wind Chill: 63°   Ceiling: Unl
Heat Index: 63°   Visibility: 10mi
Dew Point: 47°   Wind: 16mph
Humidity: 56%   Direction: 270°W
Pressure: 29.86"   Gusts: NA
Location:  40.39°N, 77.84°W
Report Text: KAOO 251653Z AUTO 27014KT 10SM FEW041 17/08 A2986 RMK AO2 SLP111 T01720083
Loading
Personal Weather Stations






























Interactive Weather Map
Tropical Storm Tracking
New forecast layout! Learn more

10-Day Weather Forecast

Advertisements
Track Severe Weather on mobile